Aviation Digital Data Service (ADDS)

Output produced by METARs form (1315 UTC 26 March 2019)
found at http://www.aviationweather.gov/metar/data/
 
TAF WPDL 260654Z 2608/2620 30008KT 9999 SCT040 
     FM261100 16005KT 9999 SCT020